METAR Data
IDs: Format: Raw Decoded Include TAF

Data at: 2357 UTC 25 Oct 2021

PAIW 252356Z AUTO 29014KT 9SM -SN OVC016 M04/M06 A2936 RMK AO2 UPB11E15SNB02E11B55 SLP943 P0000 60000 T10391061 11039 21039 51007 FZRANO
PAIW 252306Z AUTO 29016KT 9SM -SN OVC016 M04/M06 A2935 RMK AO2 SNB02 P0000 FZRANO
PAIW 252256Z AUTO 29016KT 8SM OVC014 M04/M06 A2935 RMK AO2 SNB2157E14B36E56 SLP941 P0000 T10391061 FZRANO
PAIW 252156Z AUTO 28018KT 7SM OVC014 M04/M06 A2935 RMK AO2 SNB07E08 SLP939 P0000 T10391056 FZRANO
PAIW 252056Z AUTO 27018KT 9SM OVC014 M04/M05 A2934 RMK AO2 UPB16E32SNE16 SLP936 P0000 60000 T10391050 51008 FZRANO
PAIW 251956Z AUTO 28018KT 4SM -SN BR OVC010 M04/M04 A2933 RMK AO2 SLP932 P0000 T10391044 FZRANO
PAIW 251943Z AUTO 29017KT 2SM -SN BR OVC010 M04/M04 A2933 RMK AO2 CIG 006V012 P0000 FZRANO
PAIW 251936Z AUTO 28018KT 1 1/4SM -SN BR OVC008 M04/M04 A2932 RMK AO2 CIG 004V013 P0000 FZRANO
PAIW 251912Z AUTO 28019KT 3/4SM -SN BR OVC006 M04/M04 A2932 RMK AO2 CIG 003V009 P0000 FZRANO
PAIW 251856Z AUTO 29018KT 1/2SM SN FZFG OVC004 M04/M04 A2931 RMK AO2 CIG 002V007 SLP928 P0000 T10391044 FZRANO
PAIW 251838Z AUTO 28020KT 1/2SM SN FZFG BKN004 BKN007 M04/M04 A2931 RMK AO2 CIG 003V007 P0000 FZRANO
PAIW 251827Z AUTO 28020KT 3/4SM -SN BR BKN007 M04/M04 A2931 RMK AO2 CIG 005V010 P0000 FZRANO
PAIW 251820Z AUTO 28020KT 1 1/4SM -SN BR BKN007 BKN011 M04/M04 A2930 RMK AO2 CIG 005V010 P0000 FZRANO
PAIW 251810Z AUTO 28020KT 1SM -SN BR BKN007 OVC014 M04/M04 A2930 RMK AO2 CIG 005V011 P0000 FZRANO
PAIW 251756Z AUTO 28021KT 1 1/2SM -SN BR BKN009 OVC014 M04/M04 A2930 RMK AO2 CIG 005V012 SLP924 P0000 60000 T10391044 11022 21039 58000 FZRANO
PAIW 251748Z AUTO 28020KT 1 3/4SM -SN BR OVC011 M04/M04 A2930 RMK AO2 P0000 FZRANO
PAIW 251744Z AUTO 29021KT 2SM -SN BR BKN009 OVC014 M03/M04 A2930 RMK AO2 CIG 006V011 P0000 FZRANO
PAIW 251710Z AUTO 28019KT 1 1/2SM -SN BR BKN009 OVC013 M03/M05 A2930 RMK AO2 CIG 006V011 P0000 FZRANO
PAIW 251706Z AUTO 28020KT 1 1/2SM -SN BR OVC013 M03/M05 A2930 RMK AO2 P0000 FZRANO
PAIW 251656Z AUTO 29019KT 2 1/2SM -SN BR BKN013 OVC018 M03/M05 A2930 RMK AO2 PK WND 30026/1611 UPE52SNB52 SLP925 P0000 T10331050 FZRANO
PAIW 251556Z AUTO 31021KT 6SM UP BR OVC016 M03/M05 A2931 RMK AO2 PK WND 30029/1512 UPB1457E01B27SNE1457B01E27 SLP925 P0000 T10281050 FZRANO
PAIW 251456Z AUTO 30022KT 8SM -SN OVC016 M03/M05 A2930 RMK AO2 PK WND 31029/1439 UPB25E48SNE25B48 SLP924 P0000 60000 T10281050 53001 FZRANO
PAIW 251356Z AUTO 30025G28KT 4SM -SN BR OVC016 M03/M04 A2930 RMK AO2 PK WND 29030/1340 UPE17SNB1259E11B17 SLP924 P0000 T10281044 FZRANO
PAIW 251331Z AUTO 30025KT 3SM -SN BR OVC016 M03/M04 A2930 RMK AO2 PK WND 30029/1322 UPE17SNB1259E11B17 P0000 FZRANO
PAIW 251319Z AUTO 30026KT 4SM -SN BR OVC014 M02/M04 A2930 RMK AO2 PK WND 30028/1318 UPE17SNB1259E11B17 P0000 FZRANO
PAIW 251256Z AUTO 29022KT 7SM UP OVC016 M02/M04 A2930 RMK AO2 PK WND 31028/1221 UPE00B50SNB00E50 SLP922 P0000 T10221039 FZRANO
PAIW 251237Z AUTO 29023KT 4SM -SN BR OVC016 M02/M04 A2929 RMK AO2 PK WND 31028/1221 UPE00SNB00 P0000 FZRANO
PAIW 251156Z AUTO 29021G26KT 6SM UP BR OVC012 M02/M04 A2930 RMK AO2 PK WND 29026/1154 UPB22SNE22 SLP923 P0000 60000 T10221039 11017 21022 58005 FZRANO
PAIW 251056Z AUTO 28021KT 4SM -SN BR OVC014 M02/M04 A2930 RMK AO2 SLP924 P0000 T10221039 FZRANO
PAIW 251016Z AUTO 29020KT 3SM -SN BR OVC012 M02/M04 A2931 RMK AO2 P0000 FZRANO
PAIW 251003Z AUTO 30021KT 3SM -SN BR OVC015 M02/M04 A2932 RMK AO2 P0000 FZRANO
PAIW 250956Z AUTO 29022KT 5SM -SN BR OVC013 M02/M04 A2932 RMK AO2 PK WND 29027/0931 UPE34B52E54SNB00E11B34E52B54 SLP928 P0000 T10221039 FZRANO
PAIW 250856Z AUTO 28019KT 10SM UP OVC013 M02/M03 A2931 RMK AO2 PK WND 30028/0805 SNB22E36 SLP928 P0000 60000 T10171033 410061022 52001 FZRANO
PAIW 250756Z AUTO 30023KT 8SM UP OVC013 M02/M03 A2931 RMK AO2 PK WND 29029/0725 SLP927 P0000 T10171033 FZRANO
PAIW 250656Z AUTO 30022KT 5SM UP BR OVC011 M02/M03 A2931 RMK AO2 PK WND 29027/0648 UPE0559B42SNB0559E42 SLP927 P0000 T10221028 FZRANO
PAIW 250556Z AUTO 29022KT 6SM UP BR OVC011 M02/M03 A2931 RMK AO2 PK WND 29027/0554 SLP927 P0000 60000 T10171028 11006 21017 58007 FZRANO
PAIW 250456Z AUTO 30023KT 7SM UP OVC011 M02/M03 A2932 RMK AO2 PK WND 30028/0429 UPB21SNE21 SLP930 P0000 T10171028 FZRANO
PAIW 250356Z AUTO 30024G29KT 6SM -SN BR OVC011 M02/M02 A2933 RMK AO2 PK WND 30029/0354 UPE21SNB23 SLP933 P0000 T10171022 FZRANO
PAIW 250351Z AUTO 31024G28KT 5SM -SN BR OVC011 M02/M02 A2933 RMK AO2 PK WND 31029/0316 UPE21SNB23 P0000 FZRANO
PAIW 250304Z AUTO 31023G29KT 7SM UP OVC009 M01/M02 A2933 RMK AO2 PK WND 30029/0302 CIG 009V013 P0000 FZRANO
PAIW 250256Z AUTO 31023KT 5SM UP BR OVC011 M01/M02 A2933 RMK AO2 PK WND 31030/0211 CIG 009V013 SLP935 P0000 60000 T10111022 56006 FZRANO
PAIW 250240Z AUTO 31023KT 5SM UP BR OVC011 M01/M02 A2933 RMK AO2 PK WND 31030/0211 CIG 009V013 P0000 FZRANO
PAIW 250156Z AUTO 30024KT 4SM UP BR OVC009 M01/M02 A2934 RMK AO2 PK WND 31030/0146 UPB30SNE30 CIG 006V011 SLP935 P0000 T10111017 FZRANO
PAIW 250142Z AUTO 31024KT 1 3/4SM UP BR OVC009 M01/M02 A2934 RMK AO2 PK WND 30030/0111 VIS 1 1/2V2 1/2 UPB30SNE30 CIG 006V013 P0000 FZRANO
PAIW 250131Z AUTO 31025KT 3SM UP BR BKN007 OVC011 M01/M02 A2934 RMK AO2 PK WND 30030/0111 UPB30SNE30 CIG 005V010 P0000 FZRANO
PAIW 250121Z AUTO 31024G29KT 1 1/4SM -SN BR BKN007 OVC011 M01/M02 A2934 RMK AO2 PK WND 30030/0111 CIG 005V009 P0000 FZRANO
PAIW 250105Z AUTO 31025KT 3/4SM -SN BR BKN007 OVC015 M01/M01 A2934 RMK AO2 PK WND 30028/0105 CIG 005V011 P0000 FZRANO
PAIW 250056Z AUTO 31022G30KT 1SM -SN BR BKN007 BKN013 OVC023 M01/M01 A2934 RMK AO2 PK WND 31030/0051 UPB02E09SNE02B09 SLP938 P0000 T10061011 FZRANO
PAIW 250023Z AUTO 32023KT 2SM -SN BR SCT009 BKN013 OVC020 M01/M01 A2935 RMK AO2 PK WND 32026/0022 VIS 1V3 UPB02E09SNE02B09 P0000 FZRANO
PAIW 250013Z AUTO 33022KT 1 3/4SM -SN BR BKN009 BKN015 OVC041 M01/M01 A2935 RMK AO2 PK WND 33026/0011 VIS 3/4V5 UPB02E09SNE02B09 CIG 005V012 P0000 FZRANO
PAIW 242356Z AUTO 33020KT 4SM -SN BR SCT007 BKN012 OVC043 M01/M01 A2935 RMK AO2 PK WND 31027/2312 SLP941 P0000 60000 T10061011 11006 21011 56006 FZRANO
PAIW 242350Z AUTO 32020KT 1 1/2SM -SN BR SCT007 BKN012 OVC029 M01/M01 A2935 RMK AO2 PK WND 31027/2312 P0000 FZRANO
PAIW 242346Z AUTO 32022KT 1SM -SN BR BKN007 BKN012 OVC020 M01/M01 A2935 RMK AO2 PK WND 31027/2312 CIG 004V008 P0000 FZRANO
PAIW 242334Z AUTO 32022KT 1 1/4SM -SN BR BKN007 BKN012 OVC018 M01/M01 A2935 RMK AO2 PK WND 31027/2312 CIG 004V010 P0000 FZRANO
PAIW 242317Z AUTO 31024G27KT 3/4SM -SN BR BKN007 OVC010 M01/M01 A2936 RMK AO2 PK WND 31027/2312 CIG 004V009 P0000 FZRANO
PAIW 242312Z AUTO 31021G27KT 1SM -SN BR OVC010 M01/M01 A2936 RMK AO2 PK WND 31027/2312 CIG 004V013 P0000 FZRANO
PAIW 242256Z AUTO 32019G23KT 3/4SM -SN BR BKN007 OVC010 M01/M01 A2936 RMK AO2 PK WND 32027/2242 CIG 004V009 SLP944 P0000 T10061011 FZRANO
PAIW 242239Z AUTO 32022KT 3/4SM -SN BR BKN006 BKN016 OVC021 M01/M01 A2936 RMK AO2 PK WND 31027/2237 CIG 004V011 P0000 FZRANO
PAIW 242216Z AUTO 33021KT 1 1/4SM -SN BR BKN006 OVC011 M01/M01 A2936 RMK AO2 PK WND 33027/2211 CIG 004V010 P0000 FZRANO
PAIW 242203Z AUTO 32023KT 3/4SM -SN BR BKN006 OVC014 M01/M01 A2936 RMK AO2 CIG 004V011 P0000 FZRANO
PAIW 242156Z AUTO 32019KT 1SM -SN BR BKN006 BKN010 OVC014 M01/M01 A2936 RMK AO2 PK WND 32028/2115 CIG 004V008 SLP944 P0000 T10061011 FZRANO
PAIW 242147Z AUTO 33020KT 1 1/2SM -SN BR BKN006 BKN010 BKN021 M01/M01 A2936 RMK AO2 PK WND 32028/2115 CIG 004V008 P0000 FZRANO
PAIW 242137Z AUTO 33021KT 1SM -SN BR BKN006 M01/M01 A2936 RMK AO2 PK WND 32028/2115 CIG 004V008 P0000 FZRANO
PAIW 242117Z AUTO 34020G24KT 1/2SM SN FZFG OVC006 M01/M01 A2936 RMK AO2 PK WND 32028/2115 CIG 004V010 P0000 FZRANO
PAIW 242056Z AUTO 34018KT 3/4SM -SN BR BKN006 OVC013 M01/M02 A2937 RMK AO2 CIG 004V009 SLP947 P0000 60000 T10111017 56001 FZRANO
PAIW 242039Z AUTO 34019KT 1SM -SN BR BKN006 OVC012 M01/M02 A2937 RMK AO2 P0000 FZRANO
PAIW 242031Z AUTO 34020G24KT 1 1/4SM -SN BR BKN006 OVC015 M01/M01 A2937 RMK AO2 CIG 004V011 P0000 FZRANO
PAIW 242019Z AUTO 34017KT 1 1/4SM -SN BR SCT006 BKN011 OVC017 M01/M01 A2937 RMK AO2 P0000 FZRANO
PAIW 242008Z AUTO 35014KT 3/4SM -SN BR SCT006 OVC011 M01/M02 A2937 RMK AO2 P0000 FZRANO
PAIW 242005Z AUTO 34020KT 1 1/2SM -SN BR FEW008 BKN011 OVC026 M01/M01 A2937 RMK AO2 P0000 FZRANO
PAIW 241956Z AUTO 35015KT 4SM -SN BR FEW008 OVC013 M01/M01 A2937 RMK AO2 UPB11E39SNE11B39 SLP947 P0000 T10061011 FZRANO
PAIW 241952Z AUTO 35013KT 3SM -SN BR BKN008 OVC013 M01/M01 A2937 RMK AO2 UPB11E39SNE11B39 CIG 006V011 P0000 FZRANO
PAIW 241911Z AUTO 35017KT 3SM UP BR SCT008 BKN013 OVC033 M01/M01 A2937 RMK AO2 UPB11SNE11 P0000 FZRANO
PAIW 241906Z AUTO 34014KT 2 1/2SM -SN BR BKN008 BKN016 OVC028 M01/M01 A2937 RMK AO2 VIS 1 3/4V4 CIG 005V012 P0000 FZRANO
PAIW 241904Z AUTO 34015KT 2SM -SN BR BKN010 BKN016 OVC028 M01/M01 A2937 RMK AO2 CIG 005V011 P0000 FZRANO
PAIW 241902Z AUTO 34015KT 1 3/4SM -SN BR BKN008 BKN016 OVC024 M01/M01 A2937 RMK AO2 VIS 1V3 CIG 005V011 P0000 FZRANO
PAIW 241856Z AUTO 34017KT 1 1/2SM -SN BR SCT008 BKN016 OVC024 M01/M01 A2937 RMK AO2 SLP948 P0000 T10061011 FZRANO
PAIW 241854Z AUTO 34017KT 1 3/4SM -SN BR SCT008 BKN016 OVC024 M01/M01 A2937 RMK AO2 P0000 FZRANO
PAIW 241847Z AUTO 35014KT 1 1/2SM -SN BR BKN008 BKN018 OVC024 M01/M01 A2937 RMK AO2 CIG 006V013 P0000 FZRANO
PAIW 241825Z AUTO 34015KT 2 1/2SM -SN BR SCT008 BKN012 OVC026 M01/M01 A2938 RMK AO2 P0000 FZRANO
PAIW 241818Z AUTO 35014KT 4SM -SN BR SCT008 BKN016 OVC026 M01/M01 A2938 RMK AO2 P0000 FZRANO
PAIW 241756Z AUTO 35014KT 3SM -SN BR SCT008 BKN014 OVC023 M01/M02 A2938 RMK AO2 SLP949 P0000 60000 T10111017 11006 21011 58011 FZRANO
PAIW 241714Z AUTO 35016KT 3SM -SN BR BKN008 OVC023 M01/M01 A2939 RMK AO2 CIG 005V015 P0000 FZRANO
PAIW 241656Z AUTO 35015KT 4SM -SN BR BKN010 BKN025 OVC032 M01/M01 A2940 RMK AO2 CIG 007V015 SLP956 P0000 T10061011 FZRANO
PAIW 241616Z AUTO 35016KT 5SM -SN BR SCT008 BKN012 OVC050 M01/M01 A2940 RMK AO2 P0000 FZRANO
PAIW 241612Z AUTO 35014KT 6SM -SN BR SCT010 BKN016 OVC048 M01/M01 A2940 RMK AO2 P0000 FZRANO
PAIW 241604Z AUTO 36014KT 6SM -SN BR BKN012 BKN021 OVC050 M01/M02 A2940 RMK AO2 P0000 FZRANO
PAIW 241556Z AUTO 35017KT 7SM -SN SCT009 BKN015 OVC029 M01/M01 A2940 RMK AO2 SLP958 P0000 T10111011 FZRANO
PAIW 241545Z AUTO 35016KT 6SM -SN BR FEW008 SCT014 OVC029 M01/M01 A2940 RMK AO2 P0000 FZRANO
PAIW 241540Z AUTO 35015KT 5SM -SN BR FEW010 SCT020 OVC031 M01/M01 A2940 RMK AO2 P0000 FZRANO
PAIW 241525Z AUTO 34016KT 4SM -SN BR SCT008 BKN020 OVC027 M01/M02 A2941 RMK AO2 P0000 FZRANO
PAIW 241511Z AUTO 34018KT 2 1/2SM -SN BR SCT008 OVC018 M01/M02 A2940 RMK AO2 P0000 FZRANO
PAIW 241456Z AUTO 35014KT 3SM -SN BR SCT006 SCT010 OVC018 M01/M01 A2941 RMK AO2 SLP960 P0000 60000 T10111011 58006 FZRANO
PAIW 241439Z AUTO 35016KT 2SM -SN BR SCT006 OVC012 M01/M02 A2941 RMK AO2 P0000 FZRANO
PAIW 241356Z AUTO 36011KT 1 3/4SM -SN BR FEW004 BKN008 OVC023 M01/M01 A2942 RMK AO2 CIG 006V014 SLP965 P0000 T10111011 FZRANO
PAIW 241334Z AUTO 35012KT 2 1/2SM -SN BR FEW004 BKN008 OVC022 M01/M02 A2942 RMK AO2 CIG 006V010 P0000 FZRANO
PAIW 241318Z AUTO 36012KT 1 3/4SM -SN BR SCT006 OVC010 M01/M02 A2943 RMK AO2 VIS 1 1/2V2 1/2 CIG 008V013 P0000 FZRANO
PAIW 241310Z AUTO 01012KT 2 1/2SM -SN BR SCT004 BKN010 OVC020 M01/M02 A2942 RMK AO2 VIS 1 1/2V3 P0000 FZRANO
PAIW 241256Z AUTO 01013KT 1 1/2SM -SN BR BKN006 BKN012 OVC020 M01/M01 A2942 RMK AO2 CIG 003V010 SLP965 P0000 T10061011 FZRANO
PAIW 241233Z AUTO 36013KT 2 1/2SM -SN BR BKN008 OVC020 M01/M01 A2943 RMK AO2 VIS 2 1/2V4 CIG 004V013 P0000 FZRANO
PAIW 241228Z AUTO 01011KT 3SM -SN BR SCT006 BKN010 OVC020 M01/M01 A2943 RMK AO2 CIG 009V013 P0000 FZRANO
PAIW 241219Z AUTO 01012KT 2 1/2SM -SN BR BKN008 BKN020 OVC032 M01/M01 A2943 RMK AO2 CIG 004V012 P0000 FZRANO